createdAt,value
2022-11-27T00:02:31.144Z,12.00
2022-11-27T00:05:06.959Z,10.05
2022-11-27T00:07:40.299Z,10.95
2022-11-27T00:10:15.216Z,8.07
2022-11-27T00:12:48.703Z,9.68
2022-11-27T00:15:22.640Z,8.10
2022-11-27T00:17:56.118Z,7.70
2022-11-27T00:20:29.913Z,6.60
2022-11-27T00:23:03.478Z,6.97
2022-11-27T00:25:38.097Z,6.18
2022-11-27T00:28:11.546Z,7.22
2022-11-27T00:30:44.811Z,5.40
2022-11-27T00:33:18.553Z,7.38
2022-11-27T00:35:51.831Z,7.35
2022-11-27T00:38:25.066Z,7.10
2022-11-27T00:41:07.711Z,6.80
2022-11-27T00:43:44.528Z,6.88
2022-11-27T00:46:26.651Z,7.18
2022-11-27T00:49:03.202Z,7.47
2022-11-27T00:51:37.533Z,8.27
2022-11-27T00:54:11.172Z,8.35
2022-11-27T00:56:46.263Z,6.95
2022-11-27T00:59:19.529Z,6.60
2022-11-27T01:01:53.320Z,6.32
2022-11-27T01:04:26.654Z,6.30
2022-11-27T01:07:00.273Z,6.40
2022-11-27T01:09:33.741Z,6.25
2022-11-27T01:12:09.160Z,7.00
2022-11-27T01:14:42.602Z,5.82
2022-11-27T01:17:16.027Z,6.75
2022-11-27T01:19:49.362Z,6.65
2022-11-27T01:22:22.991Z,6.82
2022-11-27T01:24:56.405Z,7.47
2022-11-27T01:27:31.258Z,7.25
2022-11-27T01:30:05.582Z,7.18
2022-11-27T01:32:39.037Z,8.80
2022-11-27T01:35:12.292Z,7.03
2022-11-27T01:37:46.002Z,6.55
2022-11-27T01:40:19.383Z,5.47
2022-11-27T01:42:54.181Z,7.10
2022-11-27T01:45:27.639Z,6.70
2022-11-27T01:48:03.995Z,6.50
2022-11-27T01:50:40.465Z,7.57
2022-11-27T01:53:18.882Z,6.55
2022-11-27T01:55:58.073Z,5.90
2022-11-27T01:58:34.589Z,6.93
2022-11-27T02:01:08.618Z,6.53
2022-11-27T02:03:42.176Z,6.65
2022-11-27T02:06:15.528Z,5.90
2022-11-27T02:08:49.288Z,6.07
2022-11-27T02:11:32.043Z,7.32
2022-11-27T02:14:15.435Z,7.53
2022-11-27T02:16:58.086Z,6.30
2022-11-27T02:19:47.196Z,6.10
2022-11-27T02:22:30.796Z,7.13
2022-11-27T02:25:10.333Z,6.03
2022-11-27T02:28:12.473Z,5.93
2022-11-27T02:30:52.729Z,5.72
2022-11-27T02:33:27.838Z,5.18
2022-11-27T02:36:07.827Z,7.05
2022-11-27T02:38:45.903Z,6.28
2022-11-27T02:41:23.414Z,6.22
2022-11-27T02:43:58.130Z,6.03
2022-11-27T02:46:33.756Z,6.13
2022-11-27T02:49:10.873Z,6.72
2022-11-27T02:51:50.169Z,6.82
2022-11-27T02:54:29.868Z,6.25
2022-11-27T02:57:05.834Z,5.95
2022-11-27T02:59:40.226Z,6.68
2022-11-27T03:02:20.976Z,7.20
2022-11-27T03:04:56.898Z,6.78
2022-11-27T03:07:37.223Z,7.30
2022-11-27T03:10:17.619Z,6.95
2022-11-27T03:12:52.116Z,6.50
2022-11-27T03:15:26.998Z,6.47
2022-11-27T03:18:07.797Z,6.80
2022-11-27T03:20:45.020Z,7.72
2022-11-27T03:23:18.296Z,7.30
2022-11-27T03:25:51.961Z,8.15
2022-11-27T03:28:26.082Z,6.95
2022-11-27T03:30:59.985Z,7.78
2022-11-27T03:33:34.803Z,7.95
2022-11-27T03:36:14.316Z,7.47
2022-11-27T03:38:49.940Z,7.32
2022-11-27T03:41:31.473Z,7.63
2022-11-27T03:44:22.797Z,8.50
2022-11-27T03:47:06.558Z,8.15
2022-11-27T03:49:57.315Z,8.30
2022-11-27T03:52:40.760Z,9.02
2022-11-27T03:55:18.720Z,7.32
2022-11-27T03:58:01.826Z,8.75
2022-11-27T04:00:40.510Z,8.50
2022-11-27T04:03:14.968Z,7.53
2022-11-27T04:05:49.612Z,8.43
2022-11-27T04:08:23.076Z,8.55
2022-11-27T04:10:56.780Z,8.15
2022-11-27T04:13:30.104Z,9.50
2022-11-27T04:16:03.930Z,9.48
2022-11-27T04:18:37.368Z,7.32
2022-11-27T04:21:12.741Z,8.02
2022-11-27T04:23:46.443Z,7.20
2022-11-27T04:26:19.718Z,9.35
2022-11-27T04:28:53.343Z,7.78
2022-11-27T04:31:26.638Z,8.63
2022-11-27T04:34:00.103Z,7.95
2022-11-27T04:36:39.027Z,8.40
2022-11-27T04:39:13.463Z,8.43
2022-11-27T04:41:46.758Z,8.00
2022-11-27T04:44:22.866Z,9.23
2022-11-27T04:46:56.482Z,8.82
2022-11-27T04:49:29.760Z,8.07
2022-11-27T04:52:05.447Z,8.43
2022-11-27T04:54:39.400Z,8.20
2022-11-27T04:57:12.924Z,7.78
2022-11-27T04:59:46.354Z,8.25
2022-11-27T05:02:19.793Z,8.52
2022-11-27T05:04:53.078Z,9.23
2022-11-27T05:07:28.321Z,8.45
2022-11-27T05:10:01.617Z,7.30
2022-11-27T05:12:34.871Z,7.65
2022-11-27T05:15:10.262Z,7.45
2022-11-27T05:17:43.591Z,8.70
2022-11-27T05:20:17.287Z,6.63
2022-11-27T05:22:51.954Z,6.60
2022-11-27T05:25:25.527Z,7.60
2022-11-27T05:27:58.935Z,6.72
2022-11-27T05:30:32.187Z,7.45
2022-11-27T05:33:05.831Z,7.03
2022-11-27T05:35:39.119Z,7.72
2022-11-27T05:38:14.218Z,6.70
2022-11-27T05:40:47.821Z,7.80
2022-11-27T05:43:21.054Z,7.00
2022-11-27T05:45:54.477Z,7.40
2022-11-27T05:48:27.732Z,6.85
2022-11-27T05:51:01.286Z,7.18
2022-11-27T05:53:36.307Z,7.10
2022-11-27T05:56:12.427Z,6.35
2022-11-27T05:58:47.786Z,7.05
2022-11-27T06:01:21.495Z,6.65
2022-11-27T06:03:55.251Z,6.03
2022-11-27T06:06:28.485Z,5.32
2022-11-27T06:09:05.758Z,6.20
2022-11-27T06:11:43.157Z,6.47
2022-11-27T06:14:16.393Z,6.32
2022-11-27T06:16:49.788Z,7.15
2022-11-27T06:19:23.216Z,4.88
2022-11-27T06:21:56.553Z,5.95
2022-11-27T06:24:31.203Z,6.13
2022-11-27T06:27:04.561Z,6.00
2022-11-27T06:29:38.348Z,5.65
2022-11-27T06:32:11.677Z,5.10
2022-11-27T06:34:45.366Z,6.70
2022-11-27T06:37:18.746Z,5.75
2022-11-27T06:39:53.378Z,6.65
2022-11-27T06:42:29.490Z,6.10
2022-11-27T06:45:02.777Z,7.03
2022-11-27T06:47:36.197Z,5.25
2022-11-27T06:50:10.143Z,6.07
2022-11-27T06:52:43.404Z,5.63
2022-11-27T06:55:18.172Z,7.20
2022-11-27T06:57:52.231Z,5.47
2022-11-27T07:00:25.495Z,5.50
2022-11-27T07:02:58.816Z,5.47
2022-11-27T07:05:32.129Z,5.35
2022-11-27T07:08:06.088Z,4.40
2022-11-27T07:10:41.016Z,5.63
2022-11-27T07:13:14.246Z,6.05
2022-11-27T07:15:47.489Z,5.80
2022-11-27T07:18:20.747Z,6.35
2022-11-27T07:20:56.666Z,7.07
2022-11-27T07:23:30.870Z,6.32
2022-11-27T07:26:09.202Z,5.75
2022-11-27T07:28:43.824Z,5.20
2022-11-27T07:31:19.140Z,3.40
2022-11-27T07:33:53.289Z,3.40
2022-11-27T07:36:28.941Z,3.85
2022-11-27T07:39:33.920Z,3.28
2022-11-27T07:45:07.454Z,5.00
2022-11-27T07:47:41.303Z,6.80
2022-11-27T07:50:14.759Z,5.47
2022-11-27T07:52:48.073Z,9.15
2022-11-27T07:55:21.337Z,4.45
2022-11-27T07:57:55.948Z,3.03
2022-11-27T08:00:29.380Z,4.50
2022-11-27T08:03:03.159Z,4.57
2022-11-27T08:05:37.271Z,3.03
2022-11-27T08:08:10.698Z,2.97
2022-11-27T08:10:43.953Z,4.22
2022-11-27T08:13:18.950Z,3.88
2022-11-27T08:15:52.233Z,3.97
2022-11-27T08:18:25.645Z,2.38
2022-11-27T08:21:01.793Z,3.75
2022-11-27T08:23:35.304Z,2.75
2022-11-27T08:26:09.929Z,2.88
2022-11-27T08:28:44.822Z,2.05
2022-11-27T08:31:18.166Z,1.73
2022-11-27T08:33:51.660Z,2.00
2022-11-27T08:36:27.048Z,2.45
2022-11-27T08:39:00.315Z,3.30
2022-11-27T08:41:33.913Z,3.92
2022-11-27T08:44:09.589Z,3.22
2022-11-27T08:46:44.722Z,2.72
2022-11-27T08:49:18.310Z,3.58
2022-11-27T08:51:51.907Z,2.33
2022-11-27T08:54:25.226Z,2.53
2022-11-27T08:56:58.470Z,2.90
2022-11-27T08:59:33.268Z,2.92
2022-11-27T09:02:06.498Z,2.67
2022-11-27T09:04:40.185Z,2.60
2022-11-27T09:07:15.922Z,2.10
2022-11-27T09:09:49.246Z,2.72
2022-11-27T09:12:22.557Z,2.42
2022-11-27T09:14:57.207Z,2.53
2022-11-27T09:17:32.017Z,2.63
2022-11-27T09:20:06.332Z,2.17
2022-11-27T09:22:39.641Z,2.75
2022-11-27T09:25:12.929Z,1.80
2022-11-27T09:27:46.333Z,3.08
2022-11-27T09:30:21.255Z,2.15
2022-11-27T09:32:54.560Z,2.33
2022-11-27T09:35:27.847Z,2.30
2022-11-27T09:38:01.136Z,2.88
2022-11-27T09:40:35.245Z,3.25
2022-11-27T09:43:11.332Z,2.15
2022-11-27T09:45:51.042Z,2.50
2022-11-27T09:48:32.133Z,2.05
2022-11-27T09:51:10.510Z,1.88
2022-11-27T09:53:48.743Z,2.28
2022-11-27T09:56:22.298Z,1.50
2022-11-27T09:58:59.678Z,1.75
2022-11-27T10:01:44.242Z,1.80
2022-11-27T10:04:22.000Z,1.98
2022-11-27T10:07:08.653Z,2.67
2022-11-27T10:09:55.317Z,2.15
2022-11-27T10:12:37.875Z,2.03
2022-11-27T10:15:18.198Z,2.05
2022-11-27T10:17:59.498Z,2.80
2022-11-27T10:20:37.803Z,2.00
2022-11-27T10:23:19.380Z,2.42
2022-11-27T10:25:56.015Z,2.83
2022-11-27T10:28:36.641Z,3.35
2022-11-27T10:31:15.836Z,2.42
2022-11-27T10:33:53.969Z,3.67
2022-11-27T10:36:31.072Z,2.80
2022-11-27T10:39:06.782Z,4.82
2022-11-27T10:41:50.230Z,3.72
2022-11-27T10:44:30.041Z,3.28
2022-11-27T10:47:05.437Z,2.08
2022-11-27T10:49:42.074Z,2.30
2022-11-27T10:52:17.063Z,2.25
2022-11-27T10:54:56.089Z,2.47
2022-11-27T10:57:49.813Z,2.40
2022-11-27T11:00:25.173Z,1.70
2022-11-27T11:03:02.394Z,1.90
2022-11-27T11:06:04.787Z,2.33
2022-11-27T11:08:32.443Z,1.83
2022-11-27T11:11:08.760Z,1.27
2022-11-27T11:13:47.214Z,1.95
2022-11-27T11:16:24.914Z,1.27
2022-11-27T11:19:01.864Z,1.83
2022-11-27T11:21:41.169Z,1.33
2022-11-27T11:24:19.550Z,1.27
2022-11-27T11:26:55.200Z,0.98
2022-11-27T11:29:35.257Z,1.40
2022-11-27T11:32:13.141Z,1.73
2022-11-27T11:34:49.060Z,1.42
2022-11-27T11:37:27.021Z,1.40
2022-11-27T11:40:02.501Z,2.03
2022-11-27T11:42:38.325Z,1.38
2022-11-27T11:45:22.081Z,1.50
2022-11-27T11:47:56.818Z,2.25
2022-11-27T11:50:35.606Z,1.70
2022-11-27T11:53:17.673Z,2.65
2022-11-27T11:56:00.899Z,2.25
2022-11-27T11:58:47.589Z,1.65
2022-11-27T12:01:33.421Z,1.85
2022-11-27T12:04:32.574Z,1.52
2022-11-27T12:07:17.054Z,3.80
2022-11-27T12:09:58.419Z,9.85
2022-11-27T12:12:49.067Z,3.13
2022-11-27T12:15:28.321Z,3.47
2022-11-27T12:18:06.126Z,1.70
2022-11-27T12:20:58.879Z,1.77
2022-11-27T12:24:06.473Z,0.90
2022-11-27T12:26:51.780Z,1.20
2022-11-27T12:29:44.213Z,0.60
2022-11-27T12:32:45.037Z,1.20
2022-11-27T12:35:35.671Z,1.65
2022-11-27T12:38:24.087Z,1.25
2022-11-27T12:41:35.679Z,2.08
2022-11-27T12:44:19.434Z,2.17
2022-11-27T12:46:59.506Z,1.10
2022-11-27T12:49:39.809Z,1.42
2022-11-27T12:52:18.441Z,1.23
2022-11-27T12:54:56.517Z,1.33
2022-11-27T12:57:37.974Z,1.83
2022-11-27T13:00:19.106Z,1.92
2022-11-27T13:03:03.758Z,1.55
2022-11-27T13:05:42.909Z,1.40
2022-11-27T13:08:21.361Z,1.58
2022-11-27T13:10:59.187Z,1.60
2022-11-27T13:13:35.262Z,1.90
2022-11-27T13:16:18.842Z,1.90
2022-11-27T13:18:57.716Z,1.20
2022-11-27T13:21:34.941Z,1.45
2022-11-27T13:24:13.627Z,2.15
2022-11-27T13:26:52.012Z,2.20
2022-11-27T13:29:30.163Z,1.58
2022-11-27T13:32:08.036Z,1.17
2022-11-27T13:34:45.175Z,1.60
2022-11-27T13:37:31.172Z,2.30
2022-11-27T13:40:07.678Z,1.52
2022-11-27T13:42:46.104Z,2.13
2022-11-27T13:45:23.937Z,1.83
2022-11-27T13:48:01.101Z,1.98
2022-11-27T13:50:44.640Z,1.35
2022-11-27T13:53:18.106Z,1.65
2022-11-27T13:55:56.777Z,1.52
2022-11-27T13:58:33.417Z,1.65
2022-11-27T14:01:16.322Z,4.53
2022-11-27T14:03:51.774Z,2.67
2022-11-27T14:06:28.819Z,1.75
2022-11-27T14:09:04.013Z,1.33
2022-11-27T14:11:41.372Z,1.98
2022-11-27T14:14:19.601Z,1.88
2022-11-27T14:16:57.662Z,1.40
2022-11-27T14:19:35.240Z,1.70
2022-11-27T14:22:16.113Z,1.80
2022-11-27T14:24:55.968Z,1.23
2022-11-27T14:27:36.234Z,1.60
2022-11-27T14:30:26.698Z,1.45
2022-11-27T14:33:00.248Z,1.50
2022-11-27T14:35:34.916Z,1.70
2022-11-27T14:38:12.618Z,1.70
2022-11-27T14:40:47.329Z,2.00
2022-11-27T14:43:23.892Z,1.90
2022-11-27T14:46:00.626Z,2.40
2022-11-27T14:48:43.592Z,1.65
2022-11-27T14:51:21.005Z,1.73
2022-11-27T14:53:59.199Z,1.42
2022-11-27T14:56:34.730Z,2.78
2022-11-27T14:59:12.105Z,3.17
2022-11-27T15:01:46.960Z,2.78
2022-11-27T15:04:28.962Z,4.05
2022-11-27T15:07:07.550Z,4.85
2022-11-27T15:09:45.495Z,3.20
2022-11-27T15:12:21.742Z,5.22
2022-11-27T15:14:59.572Z,12.63
2022-11-27T15:17:35.627Z,12.85
2022-11-27T15:20:16.878Z,9.48
2022-11-27T15:22:52.702Z,3.97
2022-11-27T15:25:45.023Z,4.97
2022-11-27T15:28:33.871Z,4.90
2022-11-27T15:31:32.757Z,4.95
2022-11-27T15:34:21.100Z,4.95
2022-11-27T15:36:57.993Z,8.80
2022-11-27T15:39:39.378Z,7.85
2022-11-27T15:42:14.602Z,8.20
2022-11-27T15:44:48.979Z,7.50
2022-11-27T15:47:25.213Z,4.47
2022-11-27T15:49:59.404Z,3.40
2022-11-27T15:52:33.195Z,3.08
2022-11-27T15:55:09.344Z,3.80
2022-11-27T15:57:42.828Z,9.02
2022-11-27T16:00:16.898Z,7.60
2022-11-27T16:02:50.356Z,6.93
2022-11-27T16:05:23.689Z,7.50
2022-11-27T16:07:57.307Z,7.75
2022-11-27T16:10:32.125Z,4.97
2022-11-27T16:13:05.431Z,5.68
2022-11-27T16:15:38.748Z,15.90
2022-11-27T16:18:12.023Z,51.72
2022-11-27T16:20:46.220Z,24.52
2022-11-27T16:23:19.576Z,8.05
2022-11-27T16:25:54.366Z,8.93
2022-11-27T16:28:28.065Z,8.70
2022-11-27T16:31:03.453Z,7.50
2022-11-27T16:33:37.033Z,8.05
2022-11-27T16:36:12.523Z,6.10
2022-11-27T16:38:46.652Z,7.93
2022-11-27T16:41:22.236Z,7.68
2022-11-27T16:43:57.888Z,9.48
2022-11-27T16:46:32.525Z,7.28
2022-11-27T16:49:07.498Z,29.50
2022-11-27T16:51:41.879Z,11.55
2022-11-27T16:54:17.686Z,15.10
2022-11-27T16:56:53.886Z,8.30
2022-11-27T16:59:27.541Z,9.32
2022-11-27T17:02:02.314Z,9.30
2022-11-27T17:04:35.840Z,13.25
2022-11-27T17:07:10.148Z,13.00
2022-11-27T17:09:43.536Z,7.30
2022-11-27T17:12:18.276Z,7.22
2022-11-27T17:14:51.786Z,5.68
2022-11-27T17:17:25.605Z,5.78
2022-11-27T17:20:00.662Z,7.07
2022-11-27T17:22:34.299Z,7.32
2022-11-27T17:25:11.084Z,7.45
2022-11-27T17:27:48.332Z,7.60
2022-11-27T17:30:21.870Z,9.52
2022-11-27T17:32:58.054Z,9.75
2022-11-27T17:35:31.584Z,8.85
2022-11-27T17:38:04.963Z,8.95
2022-11-27T17:40:38.276Z,10.10
2022-11-27T17:43:12.906Z,9.68
2022-11-27T17:45:46.309Z,9.13
2022-11-27T17:48:19.569Z,10.50
2022-11-27T17:50:53.038Z,11.43
2022-11-27T17:53:27.041Z,11.10
2022-11-27T17:56:04.228Z,9.70
2022-11-27T17:58:39.463Z,11.77
2022-11-27T18:01:17.195Z,11.98
2022-11-27T18:03:51.380Z,11.05
2022-11-27T18:06:24.885Z,9.00
2022-11-27T18:08:58.746Z,7.63
2022-11-27T18:11:34.339Z,11.45
2022-11-27T18:14:09.124Z,9.27
2022-11-27T18:16:42.846Z,9.07
2022-11-27T18:19:16.406Z,10.13
2022-11-27T18:21:50.139Z,13.30
2022-11-27T18:24:25.150Z,11.13
2022-11-27T18:27:14.307Z,10.57
2022-11-27T18:29:50.074Z,8.82
2022-11-27T18:32:23.456Z,11.02
2022-11-27T18:34:56.880Z,10.18
2022-11-27T18:37:30.193Z,11.07
2022-11-27T18:40:03.666Z,10.40
2022-11-27T18:42:37.189Z,10.75
2022-11-27T18:45:31.264Z,9.63
2022-11-27T18:48:05.979Z,9.10
2022-11-27T18:50:39.365Z,9.60
2022-11-27T18:53:13.159Z,8.70
2022-11-27T18:55:51.542Z,19.35
2022-11-27T18:58:26.141Z,20.40
2022-11-27T19:01:00.896Z,24.67
2022-11-27T19:03:36.779Z,23.38
2022-11-27T19:06:14.158Z,20.73
2022-11-27T19:08:47.875Z,19.45
2022-11-27T19:11:24.407Z,18.63
2022-11-27T19:13:59.287Z,21.83
2022-11-27T19:16:35.776Z,18.17
2022-11-27T19:19:30.023Z,18.73
2022-11-27T19:22:03.569Z,15.52
2022-11-27T19:24:38.137Z,15.55
2022-11-27T19:27:11.481Z,16.08
2022-11-27T19:29:44.782Z,14.82
2022-11-27T19:32:19.938Z,15.73
2022-11-27T19:34:53.864Z,14.90
2022-11-27T19:37:34.388Z,16.88
2022-11-27T19:40:10.796Z,19.80
2022-11-27T19:42:45.860Z,15.88
2022-11-27T19:45:20.110Z,16.88
2022-11-27T19:47:54.941Z,17.63
2022-11-27T19:50:29.601Z,15.82
2022-11-27T19:53:05.323Z,25.05
2022-11-27T19:55:39.128Z,35.75
2022-11-27T19:58:13.972Z,37.67
2022-11-27T20:00:47.261Z,27.98
2022-11-27T20:03:21.969Z,29.80
2022-11-27T20:06:03.370Z,28.17
2022-11-27T20:08:37.062Z,23.55
2022-11-27T20:11:12.258Z,21.00
2022-11-27T20:13:45.783Z,22.33
2022-11-27T20:16:21.483Z,18.58
2022-11-27T20:18:57.220Z,11.63
2022-11-27T20:21:30.501Z,13.65
2022-11-27T20:24:04.843Z,12.45
2022-11-27T20:26:42.618Z,12.52
2022-11-27T20:29:16.792Z,15.88
2022-11-27T20:31:50.334Z,17.45
2022-11-27T20:34:26.032Z,21.15
2022-11-27T20:36:59.809Z,23.65
2022-11-27T20:39:33.320Z,14.55
2022-11-27T20:42:07.355Z,15.23
2022-11-27T20:44:40.747Z,19.20
2022-11-27T20:47:14.170Z,19.02
2022-11-27T20:49:48.821Z,16.08
2022-11-27T20:52:22.128Z,15.73
2022-11-27T20:54:57.715Z,14.60
2022-11-27T20:57:31.034Z,14.40
2022-11-27T21:00:06.390Z,13.00
2022-11-27T21:02:41.167Z,13.82
2022-11-27T21:05:16.113Z,15.05
2022-11-27T21:07:49.824Z,15.85
2022-11-27T21:10:23.876Z,15.80
2022-11-27T21:12:57.248Z,16.90
2022-11-27T21:15:30.558Z,18.45
2022-11-27T21:18:04.330Z,23.05
2022-11-27T21:20:39.099Z,19.50
2022-11-27T21:23:12.469Z,17.88
2022-11-27T21:25:45.929Z,15.95
2022-11-27T21:28:19.231Z,18.42
2022-11-27T21:30:52.655Z,18.48
2022-11-27T21:33:25.998Z,17.80
2022-11-27T21:36:00.682Z,17.48
2022-11-27T21:38:34.102Z,17.25
2022-11-27T21:41:07.661Z,17.85
2022-11-27T21:43:41.474Z,18.25
2022-11-27T21:46:17.316Z,17.80
2022-11-27T21:48:52.628Z,17.27
2022-11-27T21:51:27.901Z,18.30
2022-11-27T21:54:02.739Z,17.73
2022-11-27T21:56:38.576Z,15.93
2022-11-27T21:59:13.870Z,18.70
2022-11-27T22:01:47.962Z,17.02
2022-11-27T22:04:21.404Z,16.30
2022-11-27T22:06:56.259Z,14.57
2022-11-27T22:09:33.337Z,12.95
2022-11-27T22:12:06.956Z,14.23
2022-11-27T22:14:40.531Z,18.00
2022-11-27T22:17:14.113Z,16.60
2022-11-27T22:19:47.564Z,15.15
2022-11-27T22:22:22.197Z,13.98
2022-11-27T22:24:55.728Z,17.77
2022-11-27T22:27:29.007Z,19.05
2022-11-27T22:30:02.421Z,24.75
2022-11-27T22:32:35.850Z,28.27
2022-11-27T22:35:09.575Z,21.23
2022-11-27T22:37:44.225Z,22.45
2022-11-27T22:40:17.668Z,18.83
2022-11-27T22:42:51.046Z,18.08
2022-11-27T22:45:24.462Z,18.88
2022-11-27T22:47:57.929Z,18.08
2022-11-27T22:50:31.851Z,16.10
2022-11-27T22:53:06.462Z,19.25
2022-11-27T22:55:39.819Z,17.90
2022-11-27T22:58:13.048Z,17.90
2022-11-27T23:00:46.327Z,17.30
2022-11-27T23:03:19.676Z,16.58
2022-11-27T23:05:53.065Z,16.17
2022-11-27T23:08:27.988Z,16.80
2022-11-27T23:11:01.332Z,15.55
2022-11-27T23:13:34.661Z,18.02
2022-11-27T23:16:08.893Z,18.27
2022-11-27T23:18:44.376Z,14.73
2022-11-27T23:21:19.892Z,13.85
2022-11-27T23:23:54.591Z,15.75
2022-11-27T23:26:27.916Z,15.30
2022-11-27T23:29:01.350Z,15.80
2022-11-27T23:31:36.221Z,15.13
2022-11-27T23:34:13.558Z,16.65
2022-11-27T23:36:46.845Z,17.52
2022-11-27T23:39:21.500Z,16.73
2022-11-27T23:41:54.766Z,15.73
2022-11-27T23:44:28.181Z,15.77
2022-11-27T23:47:01.452Z,14.05
2022-11-27T23:49:34.688Z,15.65
2022-11-27T23:52:09.250Z,13.52
2022-11-27T23:54:45.531Z,16.40
2022-11-27T23:57:19.109Z,15.52
2022-11-27T23:59:52.343Z,18.02
